Government of Jersey

Home Log in

Channel Islands Terminal Aerodrome Forecasts (TAFs)

Jersey Airport - EGJJ

EGJJ 220458Z 2206/2215 25004KT CAVOK=

Guernsey Airport - EGJB

EGJB 220458Z 2206/2215 26004KT CAVOK=

Alderney Airport - EGJA

EGJA 220702Z 2206/2215 25005KT 9999 FEW042=